Time;durP1;ratioP1;P1;durP2;ratioP2;P2;SDS_P1;SDS_P2;PMS_P1;PMS_P2;Temp;Humidity;BMP_temperature;BMP_pressure;BME280_temperature;BME280_humidity;BME280_pressure;Samples;Min_cycle;Max_cycle;Signal;HPM_P1;HPM_P2
2023/02/19 00:00:27;;;;;;;7.38;2.30;;;6.70;1.00;;;;;;6076633;23;20317;-80
2023/02/19 00:03:07;;;;;;;7.43;2.42;;;6.70;1.00;;;;;;6082864;23;20204;-79
2023/02/19 00:05:38;;;;;;;7.63;2.13;;;6.60;1.00;;;;;;6105269;23;20212;-79
2023/02/19 00:08:10;;;;;;;7.78;2.97;;;6.60;1.00;;;;;;6104151;23;20246;-79
2023/02/19 00:10:39;;;;;;;7.25;2.20;;;6.70;1.00;;;;;;6093490;23;20215;-79
2023/02/19 00:13:08;;;;;;;7.57;2.80;;;6.70;1.00;;;;;;6110004;23;20216;-80
2023/02/19 00:15:37;;;;;;;8.50;2.65;;;6.70;1.00;;;;;;6102428;23;20213;-79
2023/02/19 00:18:10;;;;;;;7.15;3.00;;;6.70;1.00;;;;;;6113889;23;20271;-77
2023/02/19 00:20:39;;;;;;;9.38;2.63;;;6.80;1.00;;;;;;6096274;23;20247;-80
2023/02/19 00:23:07;;;;;;;7.57;3.03;;;6.70;1.00;;;;;;6074265;23;20217;-77
2023/02/19 00:25:37;;;;;;;7.50;2.38;;;6.70;1.00;;;;;;6073758;23;20222;-77
2023/02/19 00:28:06;;;;;;;6.90;2.15;;;6.70;1.00;;;;;;6079778;23;20323;-78
2023/02/19 00:30:38;;;;;;;7.20;2.80;;;6.70;1.00;;;;;;6095613;23;20228;-78
2023/02/19 00:33:09;;;;;;;7.20;2.58;;;6.80;1.00;;;;;;6072259;23;20219;-78
2023/02/19 00:35:37;;;;;;;6.82;2.00;;;6.80;1.00;;;;;;6083061;23;20283;-78
2023/02/19 00:38:06;;;;;;;6.45;2.20;;;6.80;1.00;;;;;;6061830;23;20228;-79
2023/02/19 00:40:33;;;;;;;10.32;2.70;;;6.80;1.00;;;;;;6072887;23;20223;-80
2023/02/19 00:43:00;;;;;;;7.80;2.40;;;6.80;1.00;;;;;;6074095;23;20975;-78
2023/02/19 00:45:27;;;;;;;6.70;2.20;;;6.70;1.00;;;;;;6073427;23;20260;-77
2023/02/19 00:47:55;;;;;;;10.13;2.85;;;6.70;1.00;;;;;;6077752;23;20949;-78
2023/02/19 00:50:23;;;;;;;8.45;2.85;;;6.70;1.00;;;;;;6073782;23;21027;-79
2023/02/19 00:52:50;;;;;;;11.75;6.75;;;6.70;1.00;;;;;;6074240;23;20215;-78
2023/02/19 00:55:17;;;;;;;9.98;2.75;;;6.80;1.00;;;;;;6074744;23;20223;-78
2023/02/19 00:57:47;;;;;;;7.00;2.70;;;6.80;1.00;;;;;;6081193;23;20214;-78
2023/02/19 01:00:18;;;;;;;7.35;3.00;;;6.90;1.00;;;;;;6105686;23;20219;-77
2023/02/19 01:02:47;;;;;;;7.40;3.10;;;6.90;1.00;;;;;;6083302;23;20202;-78
2023/02/19 01:05:17;;;;;;;9.05;3.60;;;6.90;1.00;;;;;;6086495;23;20226;-78
2023/02/19 01:07:49;;;;;;;7.75;3.80;;;6.90;1.00;;;;;;6085647;23;20268;-79
2023/02/19 01:10:18;;;;;;;7.50;3.20;;;6.90;1.00;;;;;;6076532;23;20219;-77
2023/02/19 01:12:47;;;;;;;8.83;3.70;;;6.90;1.00;;;;;;6085343;23;20218;-77
2023/02/19 01:15:17;;;;;;;7.22;3.08;;;6.90;1.00;;;;;;6082819;23;20421;-79
2023/02/19 01:17:47;;;;;;;7.88;3.22;;;6.90;1.00;;;;;;6082751;23;20251;-80
2023/02/19 01:20:17;;;;;;;8.20;3.67;;;6.90;1.00;;;;;;6068650;23;20222;-79
2023/02/19 01:22:49;;;;;;;9.63;4.47;;;6.90;1.00;;;;;;6084572;23;20246;-78
2023/02/19 01:25:19;;;;;;;14.05;5.22;;;6.90;1.00;;;;;;6065674;23;20228;-79
2023/02/19 01:27:52;;;;;;;7.45;3.45;;;6.90;1.00;;;;;;6085666;23;20214;-78
2023/02/19 01:30:20;;;;;;;7.80;4.00;;;6.90;1.00;;;;;;6074951;23;20209;-79
2023/02/19 01:32:48;;;;;;;8.57;3.63;;;6.90;1.00;;;;;;6088334;23;20223;-79
2023/02/19 01:35:17;;;;;;;8.38;3.85;;;7.00;1.00;;;;;;6104227;23;20217;-77
2023/02/19 01:37:47;;;;;;;8.15;3.95;;;7.00;1.00;;;;;;6083716;23;20230;-78
2023/02/19 01:40:18;;;;;;;9.57;4.63;;;7.10;1.00;;;;;;6072502;23;20207;-79
2023/02/19 01:42:48;;;;;;;8.73;4.45;;;7.10;1.00;;;;;;6080410;23;20218;-79
2023/02/19 01:45:38;;;;;;;8.20;3.67;;;7.00;1.00;;;;;;6070422;23;20205;-78
2023/02/19 01:48:12;;;;;;;8.55;3.70;;;7.00;1.00;;;;;;6080463;23;20225;-79
2023/02/19 01:50:47;;;;;;;9.25;4.63;;;6.90;1.00;;;;;;6073794;23;20226;-79
2023/02/19 01:53:37;;;;;;;8.30;3.53;;;6.90;1.00;;;;;;6079636;23;20217;-78
2023/02/19 01:56:10;;;;;;;8.48;4.13;;;6.80;1.00;;;;;;6128658;23;20222;-77
2023/02/19 01:58:38;;;;;;;9.77;4.50;;;6.70;1.00;;;;;;6093613;23;20221;-79
2023/02/19 02:01:09;;;;;;;8.02;4.20;;;6.60;1.00;;;;;;6086978;23;20209;-78
2023/02/19 02:03:40;;;;;;;8.23;3.90;;;6.60;1.00;;;;;;6085981;23;20197;-79
2023/02/19 02:06:16;;;;;;;7.40;3.55;;;6.70;1.00;;;;;;6085294;23;20197;-78
2023/02/19 02:11:38;;;;;;;7.30;3.15;;;6.70;1.00;;;;;;6114160;23;20220;-77
2023/02/19 02:14:08;;;;;;;7.97;4.10;;;6.70;1.00;;;;;;6093571;23;20243;-78
2023/02/19 02:16:57;;;;;;;7.35;3.50;;;6.70;1.00;;;;;;6092787;23;20213;-78
2023/02/19 02:19:47;;;;;;;8.38;3.65;;;6.80;1.00;;;;;;6072823;23;20719;-78
2023/02/19 02:22:19;;;;;;;9.32;4.20;;;6.80;1.00;;;;;;6071884;23;20219;-78
2023/02/19 02:25:26;;;;;;;9.32;4.72;;;6.70;1.00;;;;;;6084479;23;20266;-78
2023/02/19 02:28:17;;;;;;;8.90;4.82;;;6.50;1.00;;;;;;6091074;23;20278;-78
2023/02/19 02:30:56;;;;;;;9.55;5.00;;;6.50;1.00;;;;;;6083969;23;20273;-80
2023/02/19 02:33:36;;;;;;;9.15;4.57;;;6.40;1.00;;;;;;6075253;23;20213;-80
2023/02/19 02:36:10;;;;;;;10.70;5.25;;;6.40;1.00;;;;;;6128699;23;20221;-77
2023/02/19 02:38:41;;;;;;;10.60;5.45;;;6.50;1.00;;;;;;6079325;23;20838;-80
2023/02/19 02:41:08;;;;;;;11.10;5.72;;;6.50;1.00;;;;;;6083251;23;20279;-78
2023/02/19 02:43:35;;;;;;;10.77;5.70;;;6.40;1.00;;;;;;6071490;23;20222;-77
2023/02/19 02:46:04;;;;;;;11.52;6.13;;;6.40;1.00;;;;;;6073123;23;20216;-78
2023/02/19 02:48:52;;;;;;;10.30;4.95;;;6.30;1.00;;;;;;6086461;23;20248;-78
2023/02/19 02:51:27;;;;;;;10.57;5.82;;;6.20;1.00;;;;;;6084691;23;20213;-79
2023/02/19 02:56:51;;;;;;;9.90;5.05;;;6.20;1.00;;;;;;6115377;23;20238;-79
2023/02/19 02:59:23;;;;;;;10.38;4.97;;;6.20;1.00;;;;;;6107921;23;20263;-79
2023/02/19 03:02:17;;;;;;;9.13;4.93;;;6.20;1.00;;;;;;6114904;23;20213;-78
2023/02/19 03:08:00;;;;;;;9.07;4.45;;;6.20;1.00;;;;;;6092033;23;20218;-78
2023/02/19 03:10:38;;;;;;;11.18;4.72;;;6.10;1.00;;;;;;6109343;23;20291;-78
2023/02/19 03:19:20;;;;;;;10.27;4.45;;;6.00;1.00;;;;;;6111624;23;20211;-78
2023/02/19 03:21:57;;;;;;;12.25;4.40;;;5.90;1.00;;;;;;6111037;23;20206;-78
2023/02/19 03:27:20;;;;;;;10.43;5.30;;;5.90;1.00;;;;;;6108616;23;20220;-79
2023/02/19 03:29:59;;;;;;;10.52;5.25;;;5.80;1.00;;;;;;6105499;23;20205;-78
2023/02/19 03:32:33;;;;;;;13.25;5.15;;;5.70;1.00;;;;;;6110074;23;20220;-78
2023/02/19 03:35:11;;;;;;;11.07;5.40;;;5.60;1.00;;;;;;6104415;23;20318;-79
2023/02/19 03:37:51;;;;;;;11.13;5.75;;;5.50;1.00;;;;;;6106340;23;20276;-78
2023/02/19 03:40:19;;;;;;;10.15;5.32;;;5.40;1.00;;;;;;6110169;23;20220;-81
2023/02/19 03:42:58;;;;;;;11.40;5.70;;;5.40;1.00;;;;;;6110385;23;20192;-78
2023/02/19 03:45:47;;;;;;;12.48;5.50;;;5.30;1.00;;;;;;6111884;23;20206;-79
2023/02/19 03:48:37;;;;;;;11.27;5.80;;;5.20;1.00;;;;;;6113366;23;20214;-77
2023/02/19 03:51:27;;;;;;;9.73;4.45;;;5.20;1.00;;;;;;6114085;23;20272;-77
2023/02/19 03:54:08;;;;;;;11.18;4.43;;;5.20;1.00;;;;;;6141582;23;20234;-77
2023/02/19 03:56:43;;;;;;;11.00;4.43;;;5.10;1.00;;;;;;6111245;23;20232;-79
2023/02/19 03:59:17;;;;;;;8.25;3.50;;;5.00;1.00;;;;;;6097996;23;20216;-78
2023/02/19 04:01:49;;;;;;;8.77;3.10;;;5.00;1.00;;;;;;6122928;23;20219;-78
2023/02/19 04:04:20;;;;;;;9.18;3.40;;;4.90;1.00;;;;;;6102736;23;20759;-77
2023/02/19 04:06:53;;;;;;;8.77;2.75;;;4.90;1.00;;;;;;6102825;23;20223;-79
2023/02/19 04:09:22;;;;;;;9.02;2.83;;;4.80;1.00;;;;;;6099821;23;20226;-77
2023/02/19 04:11:50;;;;;;;8.65;2.83;;;4.80;1.00;;;;;;6098528;23;20216;-78
2023/02/19 04:14:21;;;;;;;11.45;3.22;;;4.70;1.00;;;;;;6087295;23;20243;-77
2023/02/19 04:16:54;;;;;;;8.65;2.80;;;4.70;1.00;;;;;;6101642;23;20294;-76
2023/02/19 04:19:25;;;;;;;8.40;3.00;;;4.70;1.00;;;;;;6100803;23;20218;-76
2023/02/19 04:21:58;;;;;;;11.38;3.63;;;4.60;1.00;;;;;;6117821;23;20276;-78
2023/02/19 04:24:34;;;;;;;9.85;2.70;;;4.50;1.00;;;;;;6104054;23;20204;-78
2023/02/19 04:27:02;;;;;;;9.60;2.80;;;4.50;1.00;;;;;;6085975;23;20704;-78
2023/02/19 04:29:29;;;;;;;8.50;3.03;;;4.40;1.00;;;;;;6102057;23;20577;-78
2023/02/19 04:31:56;;;;;;;7.72;3.30;;;4.40;1.00;;;;;;6100043;23;20291;-77
2023/02/19 04:34:23;;;;;;;9.55;3.60;;;4.40;1.00;;;;;;6133623;23;20235;-79
2023/02/19 04:36:50;;;;;;;10.15;3.45;;;4.40;1.00;;;;;;6098862;23;20216;-78
2023/02/19 04:39:19;;;;;;;10.48;3.53;;;4.40;1.00;;;;;;6097275;23;20735;-78
2023/02/19 04:41:46;;;;;;;7.97;3.30;;;4.40;1.00;;;;;;6101450;23;20216;-79
2023/02/19 04:44:13;;;;;;;9.82;3.75;;;4.50;1.00;;;;;;6103400;23;20296;-79
2023/02/19 04:46:41;;;;;;;10.15;3.55;;;4.40;1.00;;;;;;6104640;23;20264;-79
2023/02/19 04:49:08;;;;;;;11.95;4.03;;;4.50;1.00;;;;;;6101517;23;20312;-78
2023/02/19 04:51:37;;;;;;;9.63;3.65;;;4.40;1.00;;;;;;6099627;23;20242;-79
2023/02/19 04:54:06;;;;;;;10.55;3.40;;;4.40;1.00;;;;;;6140434;23;20220;-78
2023/02/19 04:56:35;;;;;;;19.50;4.72;;;4.40;1.00;;;;;;6100451;23;20216;-80
2023/02/19 04:59:02;;;;;;;18.00;4.57;;;4.40;1.00;;;;;;6104039;23;20292;-80
2023/02/19 05:01:29;;;;;;;14.88;3.58;;;4.30;1.00;;;;;;6102238;23;20251;-79
2023/02/19 05:03:56;;;;;;;9.50;3.00;;;4.30;1.00;;;;;;6103338;23;20290;-79
2023/02/19 05:06:26;;;;;;;7.47;2.88;;;4.30;1.00;;;;;;6103430;23;20900;-79
2023/02/19 05:08:53;;;;;;;7.93;2.97;;;4.30;1.00;;;;;;6105542;23;20268;-79
2023/02/19 05:11:22;;;;;;;7.45;3.25;;;4.20;1.00;;;;;;6110153;23;20238;-80
2023/02/19 05:13:51;;;;;;;9.50;2.80;;;4.20;1.00;;;;;;6111607;23;20272;-77
2023/02/19 05:16:19;;;;;;;8.93;3.10;;;4.10;1.00;;;;;;6113507;23;20204;-78
2023/02/19 05:18:51;;;;;;;7.85;2.75;;;4.00;1.00;;;;;;6115339;23;20248;-80
2023/02/19 05:21:19;;;;;;;9.38;3.30;;;4.00;1.00;;;;;;6112613;23;20216;-79
2023/02/19 05:23:48;;;;;;;8.70;3.63;;;4.00;1.00;;;;;;6114786;23;20192;-78
2023/02/19 05:26:21;;;;;;;7.60;3.15;;;3.90;1.00;;;;;;6116226;23;20217;-79
2023/02/19 05:28:55;;;;;;;7.70;2.92;;;3.90;1.00;;;;;;6112122;23;20208;-80
2023/02/19 05:31:28;;;;;;;10.43;3.33;;;4.00;1.00;;;;;;6112561;23;20239;-78
2023/02/19 05:33:58;;;;;;;10.05;3.75;;;4.00;1.00;;;;;;6116653;23;20204;-77
2023/02/19 05:36:30;;;;;;;8.95;3.30;;;3.90;1.00;;;;;;6112197;23;20300;-77
2023/02/19 05:38:59;;;;;;;11.50;3.97;;;3.90;1.00;;;;;;6115152;23;20236;-78
2023/02/19 05:41:29;;;;;;;8.63;2.80;;;4.00;1.00;;;;;;6114282;23;20216;-78
2023/02/19 05:44:01;;;;;;;10.63;3.28;;;4.00;1.00;;;;;;6114243;23;20188;-77
2023/02/19 05:46:29;;;;;;;8.20;3.30;;;4.00;1.00;;;;;;6114156;23;20212;-78
2023/02/19 05:48:59;;;;;;;8.05;2.97;;;4.00;1.00;;;;;;6113055;23;20200;-79
2023/02/19 05:51:29;;;;;;;8.48;3.63;;;4.00;1.00;;;;;;6110934;23;20204;-77
2023/02/19 05:53:59;;;;;;;7.85;3.03;;;4.00;1.00;;;;;;6113467;23;20216;-77
2023/02/19 05:56:33;;;;;;;8.25;3.50;;;4.00;1.00;;;;;;6112168;23;20223;-78
2023/02/19 05:59:08;;;;;;;7.43;2.97;;;4.10;1.00;;;;;;6111457;23;20275;-80
2023/02/19 06:01:40;;;;;;;7.70;3.25;;;4.10;1.00;;;;;;6111513;23;20223;-77
2023/02/19 06:04:10;;;;;;;8.35;2.88;;;4.10;1.00;;;;;;6113147;23;20274;-78
2023/02/19 06:06:38;;;;;;;8.95;2.70;;;4.10;1.00;;;;;;6092528;23;20272;-78
2023/02/19 06:09:13;;;;;;;8.57;3.90;;;4.10;1.00;;;;;;6083069;23;20245;-79
2023/02/19 06:11:42;;;;;;;8.35;3.22;;;4.10;1.00;;;;;;6082354;23;20271;-78
2023/02/19 06:14:14;;;;;;;8.30;3.50;;;4.10;1.00;;;;;;6080682;23;20968;-81
2023/02/19 06:16:47;;;;;;;9.15;3.97;;;4.10;1.00;;;;;;6090281;23;20276;-76
2023/02/19 06:19:18;;;;;;;8.77;3.45;;;4.10;1.00;;;;;;6099598;23;20280;-77
2023/02/19 06:21:51;;;;;;;8.25;3.10;;;4.00;1.00;;;;;;6083776;23;20217;-78
2023/02/19 06:24:20;;;;;;;8.20;3.20;;;4.00;1.00;;;;;;6082732;23;20241;-76
2023/02/19 06:26:54;;;;;;;9.07;3.50;;;4.10;1.00;;;;;;6082576;23;20241;-77
2023/02/19 06:29:25;;;;;;;8.02;2.67;;;4.00;1.00;;;;;;6079916;23;20228;-79
2023/02/19 06:31:55;;;;;;;8.68;3.60;;;4.00;1.00;;;;;;6084886;23;20223;-77
2023/02/19 06:34:27;;;;;;;9.65;3.00;;;4.00;1.00;;;;;;6082873;23;20224;-79
2023/02/19 06:36:57;;;;;;;8.07;2.92;;;4.00;1.00;;;;;;6080171;23;20217;-78
2023/02/19 06:39:28;;;;;;;7.85;2.90;;;4.00;1.00;;;;;;6073741;23;20213;-79
2023/02/19 06:41:58;;;;;;;7.70;2.88;;;4.00;1.00;;;;;;6073245;23;20209;-78
2023/02/19 06:44:41;;;;;;;8.70;2.70;;;4.00;1.00;;;;;;6078561;23;20241;-79
2023/02/19 06:47:09;;;;;;;7.80;2.60;;;4.00;1.00;;;;;;6084846;23;20240;-77
2023/02/19 06:49:37;;;;;;;7.15;2.60;;;4.00;1.00;;;;;;6090619;23;20213;-78
2023/02/19 06:52:06;;;;;;;8.98;2.38;;;3.90;1.00;;;;;;6071297;23;20216;-79
2023/02/19 06:54:33;;;;;;;6.95;2.40;;;3.90;1.00;;;;;;6072451;23;20994;-78
2023/02/19 06:57:00;;;;;;;7.70;2.60;;;3.80;1.00;;;;;;6073797;23;20251;-79
2023/02/19 06:59:29;;;;;;;10.63;2.45;;;3.90;1.00;;;;;;6117620;23;20213;-81
2023/02/19 07:02:00;;;;;;;7.68;2.10;;;3.90;1.00;;;;;;6073821;23;20224;-80
2023/02/19 07:04:27;;;;;;;9.77;2.70;;;3.90;1.00;;;;;;6053901;23;20902;-81
2023/02/19 07:06:59;;;;;;;10.10;3.33;;;3.90;1.00;;;;;;6092278;23;20228;-81
2023/02/19 07:09:29;;;;;;;11.35;2.58;;;3.90;1.00;;;;;;6106064;23;20994;-79
2023/02/19 07:11:59;;;;;;;9.85;2.58;;;3.90;1.00;;;;;;6079009;23;20216;-80
2023/02/19 07:14:48;;;;;;;9.90;2.80;;;4.00;1.00;;;;;;6081768;23;20228;-79
2023/02/19 07:17:18;;;;;;;8.43;2.47;;;4.10;1.00;;;;;;6081119;23;20212;-77
2023/02/19 07:19:49;;;;;;;6.63;2.35;;;4.10;1.00;;;;;;6086232;23;20216;-77
2023/02/19 07:22:19;;;;;;;6.82;2.40;;;4.20;1.00;;;;;;6087690;23;20212;-79
2023/02/19 07:24:46;;;;;;;7.13;2.13;;;4.10;1.00;;;;;;6081545;23;20919;-78
2023/02/19 07:27:14;;;;;;;9.70;2.60;;;4.10;1.00;;;;;;6080072;23;20216;-77
2023/02/19 07:29:49;;;;;;;7.82;2.55;;;4.00;1.00;;;;;;6082826;23;20297;-80
2023/02/19 07:32:16;;;;;;;11.90;2.50;;;4.10;1.00;;;;;;6077445;23;20217;-81
2023/02/19 07:34:47;;;;;;;8.30;2.55;;;4.20;1.00;;;;;;6084249;23;20743;-78
2023/02/19 07:37:19;;;;;;;8.30;2.63;;;4.20;1.00;;;;;;6082276;23;20269;-79
2023/02/19 07:39:52;;;;;;;7.35;2.53;;;4.20;1.00;;;;;;6083347;23;20268;-78
2023/02/19 07:42:19;;;;;;;8.27;3.95;;;4.20;1.00;;;;;;6085706;23;20231;-81
2023/02/19 07:44:51;;;;;;;7.88;2.60;;;4.30;1.00;;;;;;6087355;23;20237;-78
2023/02/19 07:47:21;;;;;;;8.70;3.00;;;4.30;1.00;;;;;;6088154;23;20213;-80
2023/02/19 07:49:50;;;;;;;9.98;2.70;;;4.30;1.00;;;;;;6088768;23;20246;-79
2023/02/19 07:52:20;;;;;;;9.95;2.60;;;4.40;1.00;;;;;;6087722;23;20209;-80
2023/02/19 07:54:52;;;;;;;10.15;2.90;;;4.50;1.00;;;;;;6088776;23;20204;-80
2023/02/19 07:57:19;;;;;;;9.20;3.30;;;4.50;1.00;;;;;;6088667;23;20213;-79
2023/02/19 07:59:59;;;;;;;8.40;3.35;;;4.50;1.00;;;;;;6089242;23;20205;-79
2023/02/19 08:05:18;;;;;;;10.57;3.40;;;4.50;1.00;;;;;;6087045;23;20252;-80
2023/02/19 08:07:50;;;;;;;7.47;2.25;;;4.60;1.00;;;;;;6089855;23;21119;-80
2023/02/19 08:13:23;;;;;;;7.25;2.40;;;4.50;1.00;;;;;;6081940;23;20212;-79
2023/02/19 08:16:16;;;;;;;11.00;3.10;;;4.50;1.00;;;;;;6089519;23;20216;-80
2023/02/19 08:18:50;;;;;;;7.72;3.13;;;4.50;1.00;;;;;;6090319;23;20268;-81
2023/02/19 08:21:29;;;;;;;7.50;2.80;;;4.60;1.00;;;;;;6107883;23;20220;-82
2023/02/19 08:24:01;;;;;;;7.50;2.60;;;4.60;1.00;;;;;;6083860;23;20283;-80
2023/02/19 08:26:29;;;;;;;8.40;2.47;;;4.70;1.00;;;;;;6079627;23;20220;-80
2023/02/19 08:29:00;;;;;;;9.52;3.17;;;4.70;1.00;;;;;;6080945;23;20208;-80
2023/02/19 08:31:37;;;;;;;8.75;3.00;;;4.80;1.00;;;;;;6094976;23;20216;-81
2023/02/19 08:34:12;;;;;;;9.27;3.22;;;4.90;1.00;;;;;;6090072;23;20247;-81
2023/02/19 08:36:49;;;;;;;8.45;2.78;;;4.90;1.00;;;;;;6086441;23;20216;-80
2023/02/19 08:42:10;;;;;;;10.73;3.47;;;4.90;1.00;;;;;;6077283;23;20244;-80
2023/02/19 08:44:39;;;;;;;10.15;2.70;;;5.00;1.00;;;;;;6089353;23;21025;-80
2023/02/19 08:47:10;;;;;;;8.02;2.95;;;5.10;1.00;;;;;;6076025;23;20220;-79
2023/02/19 08:49:58;;;;;;;7.78;2.42;;;5.20;1.00;;;;;;6091718;23;20197;-79
2023/02/19 08:52:37;;;;;;;7.53;2.42;;;5.60;1.00;;;;;;6085213;23;20217;-78
2023/02/19 08:55:09;;;;;;;7.15;2.40;;;6.20;1.00;;;;;;6087111;23;20272;-80
2023/02/19 08:57:39;;;;;;;10.02;3.33;;;6.50;1.00;;;;;;6087687;23;20217;-80
2023/02/19 09:00:09;;;;;;;12.90;2.90;;;6.90;1.00;;;;;;6090266;23;21056;-80
2023/02/19 09:02:40;;;;;;;6.88;1.90;;;7.70;1.00;;;;;;6117800;23;20224;-80
2023/02/19 09:05:11;;;;;;;8.77;2.60;;;8.10;1.00;;;;;;6113559;23;20228;-80
2023/02/19 09:07:40;;;;;;;7.18;2.33;;;8.60;1.00;;;;;;6083858;23;20193;-80
2023/02/19 09:10:12;;;;;;;7.75;2.42;;;8.60;1.00;;;;;;6094954;23;20213;-80
2023/02/19 09:12:42;;;;;;;8.93;2.35;;;7.90;1.00;;;;;;6098924;23;20229;-81
2023/02/19 09:15:10;;;;;;;7.30;2.30;;;7.50;1.00;;;;;;6118198;23;20218;-79
2023/02/19 09:17:41;;;;;;;8.13;2.15;;;7.30;1.00;;;;;;6114872;23;20201;-79
2023/02/19 09:20:10;;;;;;;8.55;3.45;;;7.20;1.00;;;;;;6117764;23;20217;-79
2023/02/19 09:22:39;;;;;;;17.98;10.85;;;7.00;1.00;;;;;;6114159;23;20268;-78
2023/02/19 09:25:09;;;;;;;10.40;2.83;;;7.00;1.00;;;;;;6145208;23;20238;-81
2023/02/19 09:27:40;;;;;;;8.82;2.47;;;7.30;1.00;;;;;;6098286;23;20209;-78
2023/02/19 09:30:12;;;;;;;8.20;2.50;;;7.50;1.00;;;;;;6118395;23;20219;-78
2023/02/19 09:32:42;;;;;;;12.95;3.08;;;7.50;1.00;;;;;;6113818;23;20221;-80
2023/02/19 09:35:09;;;;;;;10.05;2.63;;;7.60;1.00;;;;;;6114992;23;20219;-79
2023/02/19 09:37:39;;;;;;;8.60;2.43;;;7.70;1.00;;;;;;6114428;23;20237;-79
2023/02/19 09:40:12;;;;;;;7.75;1.90;;;8.20;1.00;;;;;;6114531;23;20404;-80
2023/02/19 09:42:50;;;;;;;9.23;2.42;;;8.40;1.00;;;;;;6085183;23;20455;-79
2023/02/19 09:45:29;;;;;;;8.02;2.30;;;8.50;1.00;;;;;;6073252;23;20214;-80
2023/02/19 09:48:04;;;;;;;8.77;3.10;;;8.00;1.00;;;;;;6129845;23;20238;-79
2023/02/19 09:50:44;;;;;;;7.32;3.17;;;8.60;1.00;;;;;;6088415;23;20251;-79
2023/02/19 09:53:19;;;;;;;7.40;1.95;;;8.90;1.00;;;;;;6082411;23;20683;-80
2023/02/19 09:55:47;;;;;;;10.82;2.40;;;8.50;1.00;;;;;;6078850;23;20259;-77
2023/02/19 09:58:25;;;;;;;7.38;1.77;;;8.20;1.00;;;;;;6079456;23;20576;-79
2023/02/19 10:00:54;;;;;;;8.77;1.90;;;8.40;1.00;;;;;;6078755;23;20918;-78
2023/02/19 10:03:30;;;;;;;11.38;2.97;;;8.50;1.00;;;;;;6075824;23;20966;-80
2023/02/19 10:05:58;;;;;;;8.35;1.90;;;8.60;1.00;;;;;;6078523;23;20217;-79
2023/02/19 10:08:30;;;;;;;7.20;2.13;;;8.70;1.00;;;;;;6072960;23;20218;-78
2023/02/19 10:10:57;;;;;;;12.87;2.93;;;8.60;1.00;;;;;;6104691;23;20978;-78
2023/02/19 10:13:31;;;;;;;8.43;2.22;;;8.90;1.00;;;;;;6080821;23;20485;-77
2023/02/19 10:16:00;;;;;;;7.53;2.00;;;9.50;1.00;;;;;;6078647;23;20689;-78
2023/02/19 10:18:36;;;;;;;7.07;2.20;;;9.80;1.00;;;;;;6064679;23;20430;-78
2023/02/19 10:21:11;;;;;;;7.77;2.00;;;10.50;1.00;;;;;;6112786;23;20440;-80
2023/02/19 10:23:40;;;;;;;7.17;1.80;;;10.50;1.00;;;;;;6103580;23;20452;-78
2023/02/19 10:26:07;;;;;;;7.45;2.00;;;9.90;1.00;;;;;;6105353;23;20420;-76
2023/02/19 10:28:35;;;;;;;13.00;2.20;;;9.70;1.00;;;;;;6104202;23;20227;-79
2023/02/19 10:31:05;;;;;;;5.80;1.50;;;10.20;1.00;;;;;;6104844;23;20437;-79
2023/02/19 10:33:33;;;;;;;6.97;1.93;;;10.00;1.00;;;;;;6103376;23;20499;-79
2023/02/19 10:36:03;;;;;;;9.80;1.93;;;9.40;1.00;;;;;;6101317;23;20425;-78
2023/02/19 10:38:35;;;;;;;9.83;2.27;;;9.40;1.00;;;;;;6100073;23;20436;-79
2023/02/19 10:41:07;;;;;;;8.73;2.13;;;9.50;1.00;;;;;;6101092;23;20488;-78
2023/02/19 10:43:39;;;;;;;9.90;2.17;;;9.60;1.00;;;;;;6100453;23;20433;-78
2023/02/19 10:46:16;;;;;;;6.30;2.20;;;9.70;1.00;;;;;;6101669;23;20413;-78
2023/02/19 10:48:49;;;;;;;9.67;2.50;;;9.80;1.00;;;;;;6102555;23;20428;-78
2023/02/19 10:51:20;;;;;;;10.70;1.90;;;9.50;1.00;;;;;;6104013;23;20514;-80
2023/02/19 10:53:49;;;;;;;9.90;2.00;;;8.90;1.00;;;;;;6104301;23;20427;-79
2023/02/19 10:56:23;;;;;;;6.95;2.15;;;8.70;1.00;;;;;;6103261;23;20688;-77
2023/02/19 10:58:51;;;;;;;12.57;2.55;;;8.80;1.00;;;;;;6103988;23;20220;-76
2023/02/19 11:01:21;;;;;;;8.97;2.20;;;9.10;1.00;;;;;;6104095;23;20214;-78
2023/02/19 11:03:53;;;;;;;9.23;2.00;;;9.00;1.00;;;;;;6106286;23;20404;-77
2023/02/19 11:06:25;;;;;;;7.87;1.80;;;8.70;1.00;;;;;;6104759;23;20483;-78
2023/02/19 11:08:57;;;;;;;8.87;2.03;;;9.00;1.00;;;;;;6105075;23;20437;-77
2023/02/19 11:11:32;;;;;;;11.30;1.90;;;10.70;1.00;;;;;;6095663;23;20509;-77
2023/02/19 11:14:03;;;;;;;6.93;1.70;;;13.00;1.00;;;;;;6104637;23;20496;-77
2023/02/19 11:16:44;;;;;;;9.27;1.80;;;13.00;1.00;;;;;;6102924;23;20453;-78
2023/02/19 11:19:38;;;;;;;8.93;1.73;;;12.10;1.00;;;;;;6105430;23;20481;-78
2023/02/19 11:22:20;;;;;;;8.50;2.03;;;11.20;1.00;;;;;;6123527;23;20435;-80
2023/02/19 11:24:52;;;;;;;6.60;1.50;;;10.60;1.00;;;;;;6087399;23;20441;-77
2023/02/19 11:27:22;;;;;;;6.40;1.53;;;10.40;1.00;;;;;;6076366;23;20477;-77
2023/02/19 11:29:53;;;;;;;7.50;2.00;;;10.10;1.00;;;;;;6076988;23;20441;-81
2023/02/19 11:32:29;;;;;;;7.27;1.70;;;9.50;1.00;;;;;;6075726;23;20438;-78
2023/02/19 11:35:24;;;;;;;7.87;1.70;;;9.20;1.00;;;;;;6077158;23;20421;-79
2023/02/19 11:38:09;;;;;;;8.57;2.23;;;9.50;1.00;;;;;;6060654;23;20572;-75
2023/02/19 11:40:41;;;;;;;9.90;2.03;;;9.70;1.00;;;;;;6075337;23;20432;-76
2023/02/19 11:43:29;;;;;;;8.33;1.90;;;10.40;1.00;;;;;;6075454;23;20429;-77
2023/02/19 11:46:08;;;;;;;11.33;2.47;;;10.60;1.00;;;;;;6044623;23;20432;-77
2023/02/19 11:48:55;;;;;;;8.27;1.67;;;11.60;1.00;;;;;;6053756;23;20920;-77
2023/02/19 11:51:46;;;;;;;6.97;1.70;;;12.50;1.00;;;;;;6075750;23;20506;-78
2023/02/19 11:54:29;;;;;;;7.37;1.50;;;12.30;1.00;;;;;;6074686;23;20433;-79
2023/02/19 11:57:07;;;;;;;9.10;1.90;;;11.60;1.00;;;;;;6074793;23;20443;-77
2023/02/19 11:59:44;;;;;;;6.23;1.43;;;11.70;1.00;;;;;;6075202;23;20422;-77
2023/02/19 12:02:43;;;;;;;5.87;1.60;;;13.50;1.00;;;;;;6073978;23;20437;-77
2023/02/19 12:05:37;;;;;;;9.47;2.50;;;14.90;1.00;;;;;;6080034;23;21230;-77
2023/02/19 12:08:34;;;;;;;7.30;1.60;;;16.10;1.00;;;;;;6083217;23;20406;-77
2023/02/19 12:11:19;;;;;;;9.30;2.33;;;16.30;1.00;;;;;;6094545;23;20518;-78
2023/02/19 12:14:11;;;;;;;8.10;2.10;;;16.30;1.00;;;;;;6101322;23;20575;-77
2023/02/19 12:16:47;;;;;;;7.77;1.70;;;16.70;1.00;;;;;;6103527;23;21162;-74
2023/02/19 12:19:39;;;;;;;6.90;1.73;;;16.40;1.00;;;;;;6099339;23;20883;-79
2023/02/19 12:22:29;;;;;;;8.50;1.90;;;17.10;1.00;;;;;;6093657;23;20518;-77
2023/02/19 12:25:27;;;;;;;7.70;1.70;;;17.70;1.00;;;;;;6100456;23;20428;-78
2023/02/19 12:28:44;;;;;;;7.20;1.80;;;18.30;1.00;;;;;;6073946;23;20458;-79
2023/02/19 12:31:34;;;;;;;9.97;1.40;;;16.90;1.00;;;;;;6075050;23;20434;-79
2023/02/19 12:34:17;;;;;;;7.00;1.93;;;17.00;1.00;;;;;;6069548;23;20439;-78
2023/02/19 12:36:59;;;;;;;7.63;2.00;;;16.30;1.00;;;;;;6074912;23;20505;-76
2023/02/19 12:39:37;;;;;;;5.90;1.57;;;16.30;1.00;;;;;;6072613;23;20488;-77
2023/02/19 12:42:11;;;;;;;9.20;2.10;;;18.50;1.00;;;;;;6073200;23;20438;-78
2023/02/19 12:44:46;;;;;;;7.13;1.70;;;19.90;1.00;;;;;;6072140;23;20419;-77
2023/02/19 12:47:19;;;;;;;7.77;2.63;;;20.00;1.00;;;;;;6109180;23;20439;-78
2023/02/19 12:49:50;;;;;;;6.90;2.00;;;19.60;1.00;;;;;;6103819;23;21012;-78
2023/02/19 12:52:22;;;;;;;7.57;1.83;;;19.10;1.00;;;;;;6090225;23;20829;-78
2023/02/19 12:54:53;;;;;;;5.67;1.53;;;19.10;1.00;;;;;;6074813;23;20426;-77
2023/02/19 12:57:26;;;;;;;7.30;1.70;;;18.30;1.00;;;;;;6073508;23;20453;-77
2023/02/19 12:59:59;;;;;;;7.13;1.80;;;16.80;1.00;;;;;;6068859;23;20427;-78
2023/02/19 13:02:30;;;;;;;9.30;1.60;;;14.60;1.00;;;;;;6087782;23;20499;-76
2023/02/19 13:05:04;;;;;;;6.37;1.60;;;13.70;1.00;;;;;;6080192;23;20512;-76
2023/02/19 13:07:38;;;;;;;6.67;1.63;;;13.90;1.00;;;;;;6121851;23;20465;-76
2023/02/19 13:10:18;;;;;;;6.10;1.47;;;14.70;1.00;;;;;;6072690;23;20441;-77
2023/02/19 13:12:49;;;;;;;7.87;1.67;;;15.40;1.00;;;;;;6069802;23;20422;-78
2023/02/19 13:15:21;;;;;;;6.07;1.63;;;15.80;1.00;;;;;;6072555;23;20431;-78
2023/02/19 13:17:52;;;;;;;6.63;1.20;;;16.20;1.00;;;;;;6075162;23;20530;-79
2023/02/19 13:20:26;;;;;;;7.00;1.87;;;14.80;1.00;;;;;;6074653;23;20491;-78
2023/02/19 13:26:16;;;;;;;7.03;1.37;;;12.40;1.00;;;;;;6108268;23;20389;-81
2023/02/19 13:28:59;;;;;;;6.60;1.27;;;12.00;1.00;;;;;;6107218;23;20428;-78
2023/02/19 13:31:50;;;;;;;7.00;1.73;;;12.70;1.00;;;;;;6106214;23;20460;-78
2023/02/19 13:34:28;;;;;;;6.80;1.70;;;12.30;1.00;;;;;;6103113;23;20396;-79
2023/02/19 13:37:06;;;;;;;7.13;1.83;;;11.30;1.00;;;;;;6108309;23;20397;-78
2023/02/19 13:39:34;;;;;;;10.07;2.20;;;10.40;1.00;;;;;;6105881;23;20492;-77
2023/02/19 13:42:02;;;;;;;7.07;1.50;;;9.80;1.00;;;;;;6109953;23;20433;-80
2023/02/19 13:44:33;;;;;;;9.43;1.90;;;9.20;1.00;;;;;;6105307;23;21264;-78
2023/02/19 13:47:04;;;;;;;6.77;1.47;;;8.80;1.00;;;;;;6106720;23;20317;-80
2023/02/19 13:49:51;;;;;;;8.77;1.67;;;8.50;1.00;;;;;;6100384;23;20452;-79
2023/02/19 13:52:38;;;;;;;6.25;1.50;;;8.50;1.00;;;;;;6103980;23;20471;-77
2023/02/19 13:55:42;;;;;;;6.50;1.73;;;8.50;1.00;;;;;;6105945;23;20241;-78
2023/02/19 13:59:00;;;;;;;5.97;1.67;;;8.50;1.00;;;;;;6105445;23;20460;-78
2023/02/19 14:02:12;;;;;;;5.43;1.17;;;8.50;1.00;;;;;;6074294;23;20284;-79
2023/02/19 14:04:50;;;;;;;8.93;1.50;;;8.40;1.00;;;;;;6152681;23;20445;-79
2023/02/19 14:07:33;;;;;;;7.15;1.50;;;8.40;1.00;;;;;;6107158;23;20425;-78